Terminal Aerodrome Forecast
Issued by NWS

Home | Current Version | Previous Version | Text Only | Print | Product List | Glossary On
Versions: 1 2 3 4 5 6 7 8 9 10 11 12 13 14 15 16 17 18 19 20 21
000
FTUS41 KGYX 201940 AAA
TAFAUG
TAF AMD
KAUG 201940Z 2020/2118 05006KT P6SM BKN015
     FM210500 01005KT P6SM OVC020
     FM211200 01005KT P6SM OVC015=

USA.gov is the U.S. government's official web portal to all federal, state and local government web resources and services.